Cinque Terre — IUTV — position and weather

sailwx.info

Track history (hours):
 
Tides and Currents Weather Stations Pressure Air Temp Water Temp Dewpoint Dewpoint Depression Visibility Wind Speed Wind Dir Waves Ship Positions

Cinque Terre

Last reported at 2015-May-26 08:33 UTC. Time now 2015-May-26 11:47 UTC.
Position N 40°34' E 014°15'.

Length 15 m; draft 1 m.

Type: Passenger vessel. MMSI: 247208400.

Date/timePositionNaut miles runAvg speedWind from/ knotsBaromVisibWave heightAir tempDewpointWater temp
2015-May-26 08:33N 40°34' E 014°15'1 1.2
2015-May-26 07:32N 40°34' E 014°16'3 0.2
2015-May-25 15:33N 40°36' E 014°19'1 0.6
2015-May-25 14:28N 40°35' E 014°18'2 0.5
2015-May-25 10:20N 40°37' E 014°20'0 0.0
2015-May-25 09:33N 40°37' E 014°20'5 5.2
2015-May-25 08:33N 40°34' E 014°15'2 1.9
2015-May-25 07:31N 40°34' E 014°17'3 3.3
2015-May-25 06:33N 40°37' E 014°20'  
2015-May-22 13:33N 40°37' E 014°20'0 0.0
2015-May-22 12:33N 40°37' E 014°20'2 2.0
2015-May-22 11:31N 40°39' E 014°20'9 7.2
2015-May-22 10:18N 40°47' E 014°22'1012.7
2015-May-22 09:32N 40°38' E 014°19'6 5.4
2015-May-22 08:31N 40°33' E 014°15'1 0.7
2015-May-22 07:33N 40°34' E 014°14'7 6.7
2015-May-22 06:30N 40°38' E 014°21'2 0.1
2015-May-21 15:33N 40°37' E 014°20'3 2.9
2015-May-21 14:29N 40°35' E 014°17'3 0.6
2015-May-21 09:29N 40°37' E 014°20'5 5.5
2015-May-21 08:33N 40°33' E 014°15'2 2.1
2015-May-21 07:31N 40°35' E 014°17'0 0.0
2015-May-20 15:32N 40°35' E 014°18'2 2.4
2015-May-20 14:30N 40°33' E 014°16'1 1.5
2015-May-20 13:33N 40°33' E 014°14'0 0.0
2015-May-20 12:33N 40°33' E 014°14'0 0.0
2015-May-20 11:32N 40°33' E 014°14'1 0.4
2015-May-20 08:33N 40°34' E 014°15'1 0.9
2015-May-20 07:23N 40°34' E 014°16'4 5.1
2015-May-20 06:33N 40°37' E 014°20'0 0.0
2015-May-19 16:29N 40°37' E 014°20'1 1.5
2015-May-19 15:33N 40°35' E 014°19'4 3.9
2015-May-19 14:28N 40°33' E 014°15'0 0.1
2015-May-19 11:32N 40°33' E 014°15'1 0.2
2015-May-19 08:33N 40°33' E 014°15'3 3.0
2015-May-19 07:31N 40°35' E 014°18'4 4.0
2015-May-19 06:33N 40°38' E 014°21'2 0.1
2015-May-18 16:30N 40°37' E 014°20'3 3.5
2015-May-18 15:33N 40°35' E 014°17'2 0.3
2015-May-18 08:33N 40°34' E 014°15'1 1.1
2015-May-18 07:29N 40°34' E 014°16'6 6.4
2015-May-18 06:33N 40°38' E 014°21'2 0.1
2015-May-17 10:18N 40°37' E 014°20'0 0.1
2015-May-17 09:33N 40°37' E 014°20'0 0.0
2015-May-17 08:33N 40°37' E 014°20'  
Track history (hours):
 
Tides and Currents Weather Stations Pressure Air Temp Water Temp Dewpoint Dewpoint Depression Visibility Wind Speed Wind Dir Waves Ship Positions

Cinque Terre

Last reported at 2015-May-26 08:33 UTC. Time now 2015-May-26 11:47 UTC.
Position N 40°34' E 014°15'.

Length 15 m; draft 1 m.

Type: Passenger vessel. MMSI: 247208400.

Date/timePositionNaut miles runAvg speedWind from/ knotsBaromVisibWave heightAir tempDewpointWater temp
2015-May-26 08:33N 40°34' E 014°15'1 1.2
2015-May-26 07:32N 40°34' E 014°16'3 0.2
2015-May-25 15:33N 40°36' E 014°19'1 0.6
2015-May-25 14:28N 40°35' E 014°18'2 0.5
2015-May-25 10:20N 40°37' E 014°20'0 0.0
2015-May-25 09:33N 40°37' E 014°20'5 5.2
2015-May-25 08:33N 40°34' E 014°15'2 1.9
2015-May-25 07:31N 40°34' E 014°17'3 3.3
2015-May-25 06:33N 40°37' E 014°20'  
2015-May-22 13:33N 40°37' E 014°20'0 0.0
2015-May-22 12:33N 40°37' E 014°20'2 2.0
2015-May-22 11:31N 40°39' E 014°20'9 7.2
2015-May-22 10:18N 40°47' E 014°22'1012.7
2015-May-22 09:32N 40°38' E 014°19'6 5.4
2015-May-22 08:31N 40°33' E 014°15'1 0.7
2015-May-22 07:33N 40°34' E 014°14'7 6.7
2015-May-22 06:30N 40°38' E 014°21'2 0.1
2015-May-21 15:33N 40°37' E 014°20'3 2.9
2015-May-21 14:29N 40°35' E 014°17'3 0.6
2015-May-21 09:29N 40°37' E 014°20'5 5.5
2015-May-21 08:33N 40°33' E 014°15'2 2.1
2015-May-21 07:31N 40°35' E 014°17'0 0.0
2015-May-20 15:32N 40°35' E 014°18'2 2.4
2015-May-20 14:30N 40°33' E 014°16'1 1.5
2015-May-20 13:33N 40°33' E 014°14'0 0.0
2015-May-20 12:33N 40°33' E 014°14'0 0.0
2015-May-20 11:32N 40°33' E 014°14'1 0.4
2015-May-20 08:33N 40°34' E 014°15'1 0.9
2015-May-20 07:23N 40°34' E 014°16'4 5.1
2015-May-20 06:33N 40°37' E 014°20'0 0.0
2015-May-19 16:29N 40°37' E 014°20'1 1.5
2015-May-19 15:33N 40°35' E 014°19'4 3.9
2015-May-19 14:28N 40°33' E 014°15'0 0.1
2015-May-19 11:32N 40°33' E 014°15'1 0.2
2015-May-19 08:33N 40°33' E 014°15'3 3.0
2015-May-19 07:31N 40°35' E 014°18'4 4.0
2015-May-19 06:33N 40°38' E 014°21'2 0.1
2015-May-18 16:30N 40°37' E 014°20'3 3.5
2015-May-18 15:33N 40°35' E 014°17'2 0.3
2015-May-18 08:33N 40°34' E 014°15'1 1.1
2015-May-18 07:29N 40°34' E 014°16'6 6.4
2015-May-18 06:33N 40°38' E 014°21'2 0.1
2015-May-17 10:18N 40°37' E 014°20'0 0.1
2015-May-17 09:33N 40°37' E 014°20'0 0.0
2015-May-17 08:33N 40°37' E 014°20'  

Dump ship's entire track history